createdAt,value
2023-01-01T00:01:24.984Z,100321.53
2023-01-01T00:03:52.635Z,100322.31
2023-01-01T00:06:19.739Z,100320.28
2023-01-01T00:08:46.781Z,100331.19
2023-01-01T00:11:14.141Z,100337.63
2023-01-01T00:13:42.026Z,100348.94
2023-01-01T00:16:11.837Z,100341.25
2023-01-01T00:18:38.913Z,100327.53
2023-01-01T00:21:12.730Z,100342.06
2023-01-01T00:23:39.610Z,100345.66
2023-01-01T00:26:13.607Z,100340.38
2023-01-01T00:28:40.170Z,100358.13
2023-01-01T00:31:11.350Z,100353.28
2023-01-01T00:33:37.751Z,100358.53
2023-01-01T00:36:08.756Z,100340.38
2023-01-01T00:38:35.804Z,100352.44
2023-01-01T00:41:02.251Z,100345.56
2023-01-01T00:43:28.715Z,100333.06
2023-01-01T00:45:55.505Z,100329.44
2023-01-01T00:48:22.088Z,100324.22
2023-01-01T00:50:49.592Z,100327.44
2023-01-01T00:53:16.196Z,100323.00
2023-01-01T00:55:44.255Z,100327.06
2023-01-01T00:58:11.319Z,100325.47
2023-01-01T01:00:38.270Z,100332.72
2023-01-01T01:03:04.729Z,100335.97
2023-01-01T01:05:32.146Z,100337.63
2023-01-01T01:07:59.426Z,100340.84
2023-01-01T01:10:26.337Z,100350.97
2023-01-01T01:12:53.330Z,100340.47
2023-01-01T01:15:20.175Z,100359.06
2023-01-01T01:17:47.212Z,100353.81
2023-01-01T01:20:13.762Z,100351.41
2023-01-01T01:22:40.182Z,100355.84
2023-01-01T01:25:07.653Z,100354.25
2023-01-01T01:27:34.223Z,100355.09
2023-01-01T01:30:00.585Z,100355.91
2023-01-01T01:32:26.998Z,100353.91
2023-01-01T01:34:53.542Z,100360.41
2023-01-01T01:37:20.262Z,100366.44
2023-01-01T01:39:51.718Z,100362.03
2023-01-01T01:42:20.306Z,100368.09
2023-01-01T01:44:49.546Z,100372.16
2023-01-01T01:47:20.801Z,100373.38
2023-01-01T01:49:47.868Z,100368.16
2023-01-01T01:52:15.041Z,100377.81
2023-01-01T01:54:42.560Z,100380.25
2023-01-01T01:57:13.661Z,100379.88
2023-01-01T01:59:47.534Z,100379.88
2023-01-01T02:02:27.140Z,100384.31
2023-01-01T02:04:54.772Z,100379.03
2023-01-01T02:07:22.867Z,100386.72
2023-01-01T02:09:49.300Z,100380.69
2023-01-01T02:12:15.730Z,100393.97
2023-01-01T02:14:42.311Z,100395.16
2023-01-01T02:17:15.522Z,100383.50
2023-01-01T02:20:01.225Z,100388.34
2023-01-01T02:22:37.993Z,100405.28
2023-01-01T02:25:28.568Z,100395.63
2023-01-01T02:28:23.068Z,100399.25
2023-01-01T02:30:52.872Z,100390.38
2023-01-01T02:33:27.899Z,100387.56
2023-01-01T02:36:02.779Z,100376.28
2023-01-01T02:38:39.820Z,100390.00
2023-01-01T02:41:10.916Z,100380.75
2023-01-01T02:43:37.995Z,100389.59
2023-01-01T02:46:12.388Z,100389.63
2023-01-01T02:48:49.448Z,100390.81
2023-01-01T02:51:39.759Z,100398.91
2023-01-01T02:54:16.604Z,100392.03
2023-01-01T02:56:49.096Z,100396.09
2023-01-01T02:59:45.393Z,100387.22
2023-01-01T03:02:23.159Z,100391.66
2023-01-01T03:05:10.966Z,100387.22
2023-01-01T03:08:03.549Z,100388.44
2023-01-01T03:10:57.951Z,100400.94
2023-01-01T03:13:38.056Z,100405.38
2023-01-01T03:16:11.583Z,100399.34
2023-01-01T03:19:11.717Z,100405.00
2023-01-01T03:21:55.055Z,100398.13
2023-01-01T03:24:31.566Z,100401.38
2023-01-01T03:27:04.151Z,100407.00
2023-01-01T03:29:36.645Z,100411.03
2023-01-01T03:32:06.334Z,100421.53
2023-01-01T03:34:39.080Z,100408.63
2023-01-01T03:37:10.052Z,100411.03
2023-01-01T03:39:41.103Z,100415.09
2023-01-01T03:42:29.016Z,100409.06
2023-01-01T03:45:04.479Z,100407.84
2023-01-01T03:47:31.337Z,100404.59
2023-01-01T03:49:58.862Z,100388.50
2023-01-01T03:52:38.611Z,100400.59
2023-01-01T03:55:15.658Z,100395.78
2023-01-01T03:58:08.099Z,100408.66
2023-01-01T04:00:38.991Z,100417.91
2023-01-01T04:03:18.506Z,100407.47
2023-01-01T04:05:45.287Z,100414.28
2023-01-01T04:08:14.667Z,100416.69
2023-01-01T04:10:48.762Z,100424.75
2023-01-01T04:13:15.648Z,100427.16
2023-01-01T04:15:42.229Z,100429.97
2023-01-01T04:18:09.177Z,100436.41
2023-01-01T04:20:35.641Z,100449.31
2023-01-01T04:23:03.956Z,100440.88
2023-01-01T04:25:31.035Z,100463.81
2023-01-01T04:28:03.432Z,100458.97
2023-01-01T04:30:29.903Z,100457.75
2023-01-01T04:32:56.543Z,100469.88
2023-01-01T04:35:22.879Z,100474.28
2023-01-01T04:37:49.405Z,100467.00
2023-01-01T04:40:16.324Z,100464.19
2023-01-01T04:42:43.406Z,100463.81
2023-01-01T04:45:12.242Z,100460.16
2023-01-01T04:47:38.993Z,100439.25
2023-01-01T04:50:07.059Z,100442.06
2023-01-01T04:52:33.750Z,100457.75
2023-01-01T04:55:00.130Z,100467.00
2023-01-01T04:57:28.924Z,100467.81
2023-01-01T04:59:55.446Z,100465.00
2023-01-01T05:02:21.982Z,100466.59
2023-01-01T05:04:49.492Z,100477.50
2023-01-01T05:07:16.670Z,100466.22
2023-01-01T05:09:43.041Z,100478.69
2023-01-01T05:12:09.569Z,100469.84
2023-01-01T05:14:36.067Z,100485.16
2023-01-01T05:17:02.393Z,100488.34
2023-01-01T05:19:29.489Z,100493.59
2023-01-01T05:21:56.031Z,100496.81
2023-01-01T05:24:22.410Z,100501.66
2023-01-01T05:26:49.187Z,100483.13
2023-01-01T05:29:17.481Z,100473.03
2023-01-01T05:31:44.620Z,100483.50
2023-01-01T05:34:11.114Z,100487.97
2023-01-01T05:36:39.283Z,100499.25
2023-01-01T05:39:08.140Z,100498.81
2023-01-01T05:41:36.793Z,100493.22
2023-01-01T05:44:05.860Z,100498.03
2023-01-01T05:46:32.560Z,100492.41
2023-01-01T05:48:59.200Z,100496.44
2023-01-01T05:51:27.733Z,100498.44
2023-01-01T05:53:54.625Z,100496.84
2023-01-01T05:56:21.259Z,100502.47
2023-01-01T05:58:47.854Z,100502.47
2023-01-01T06:01:19.586Z,100518.19
2023-01-01T06:03:48.840Z,100530.25
2023-01-01T06:06:18.783Z,100537.50
2023-01-01T06:08:52.591Z,100538.31
2023-01-01T06:11:20.172Z,100541.13
2023-01-01T06:13:47.082Z,100543.94
2023-01-01T06:16:14.173Z,100553.59
2023-01-01T06:18:40.816Z,100564.06
2023-01-01T06:21:15.691Z,100562.47
2023-01-01T06:23:43.122Z,100562.06
2023-01-01T06:26:17.914Z,100557.63
2023-01-01T06:28:45.201Z,100566.91
2023-01-01T06:31:14.361Z,100587.44
2023-01-01T06:33:41.335Z,100574.53
2023-01-01T06:36:10.229Z,100565.28
2023-01-01T06:38:39.622Z,100562.88
2023-01-01T06:41:13.076Z,100572.91
2023-01-01T06:43:39.763Z,100587.44
2023-01-01T06:46:17.838Z,100595.06
2023-01-01T06:48:46.001Z,100596.69
2023-01-01T06:51:15.044Z,100589.03
2023-01-01T06:53:41.693Z,100597.06
2023-01-01T06:56:09.027Z,100595.06
2023-01-01T06:58:35.817Z,100600.69
2023-01-01T07:01:16.231Z,100602.31
2023-01-01T07:03:43.648Z,100611.97
2023-01-01T07:06:10.734Z,100620.84
2023-01-01T07:08:37.848Z,100633.31
2023-01-01T07:11:04.338Z,100645.81
2023-01-01T07:13:31.279Z,100635.34
2023-01-01T07:15:57.853Z,100618.81
2023-01-01T07:18:26.132Z,100632.88
2023-01-01T07:20:54.638Z,100632.88
2023-01-01T07:23:21.163Z,100633.72
2023-01-01T07:25:50.172Z,100649.00
2023-01-01T07:28:16.569Z,100648.19
2023-01-01T07:30:43.060Z,100638.94
2023-01-01T07:33:12.937Z,100647.00
2023-01-01T07:35:40.069Z,100656.25
2023-01-01T07:38:06.551Z,100650.19
2023-01-01T07:40:33.169Z,100656.22
2023-01-01T07:42:59.536Z,100666.28
2023-01-01T07:45:26.084Z,100681.19
2023-01-01T07:47:57.723Z,100696.09
2023-01-01T07:50:26.648Z,100690.03
2023-01-01T07:52:53.550Z,100694.88
2023-01-01T07:55:20.770Z,100701.72
2023-01-01T07:57:48.164Z,100704.53
2023-01-01T08:00:17.989Z,100698.50
2023-01-01T08:02:44.971Z,100693.25
2023-01-01T08:05:11.587Z,100695.66
2023-01-01T08:07:38.210Z,100700.47
2023-01-01T08:10:06.140Z,100705.31
2023-01-01T08:12:33.604Z,100713.31
2023-01-01T08:15:01.198Z,100720.94
2023-01-01T08:17:27.571Z,100731.81
2023-01-01T08:19:53.936Z,100720.50
2023-01-01T08:22:20.393Z,100731.38
2023-01-01T08:24:46.915Z,100734.94
2023-01-01T08:27:14.755Z,100735.34
2023-01-01T08:29:41.648Z,100739.38
2023-01-01T08:32:08.359Z,100738.94
2023-01-01T08:34:34.763Z,100748.59
2023-01-01T08:37:01.191Z,100744.56
2023-01-01T08:39:29.147Z,100757.03
2023-01-01T08:41:55.689Z,100757.03
2023-01-01T08:44:22.920Z,100762.66
2023-01-01T08:46:49.410Z,100742.94
2023-01-01T08:49:15.815Z,100753.84
2023-01-01T08:51:42.201Z,100751.03
2023-01-01T08:54:08.638Z,100751.03
2023-01-01T08:56:36.073Z,100777.53
2023-01-01T08:59:04.570Z,100791.63
2023-01-01T09:01:31.014Z,100785.63
2023-01-01T09:03:57.767Z,100781.63
2023-01-01T09:06:24.307Z,100800.91
2023-01-01T09:08:51.342Z,100790.84
2023-01-01T09:11:23.694Z,100806.50
2023-01-01T09:13:50.374Z,100803.31
2023-01-01T09:16:17.018Z,100817.41
2023-01-01T09:18:43.436Z,100806.94
2023-01-01T09:21:09.837Z,100811.75
2023-01-01T09:23:37.706Z,100810.97
2023-01-01T09:26:09.235Z,100829.06
2023-01-01T09:28:36.727Z,100833.13
2023-01-01T09:31:06.522Z,100843.56
2023-01-01T09:33:34.197Z,100843.22
2023-01-01T09:36:29.187Z,100848.84
2023-01-01T09:38:56.995Z,100866.19
2023-01-01T09:41:51.555Z,100855.31
2023-01-01T09:44:39.508Z,100858.56
2023-01-01T09:47:20.799Z,100863.00
2023-01-01T09:49:52.184Z,100860.59
2023-01-01T09:52:20.320Z,100850.94
2023-01-01T09:55:00.823Z,100857.78
2023-01-01T09:57:32.226Z,100851.75
2023-01-01T10:00:00.409Z,100854.19
2023-01-01T10:02:39.852Z,100855.41
2023-01-01T10:05:26.307Z,100861.88
2023-01-01T10:08:14.935Z,100871.97
2023-01-01T10:11:01.829Z,100870.75
2023-01-01T10:13:42.315Z,100860.69
2023-01-01T10:16:37.046Z,100863.13
2023-01-01T10:19:13.426Z,100861.13
2023-01-01T10:21:47.172Z,100853.88
2023-01-01T10:24:32.584Z,100878.44
2023-01-01T10:27:02.343Z,100872.81
2023-01-01T10:29:40.846Z,100878.88
2023-01-01T10:32:19.875Z,100880.47
2023-01-01T10:34:47.038Z,100876.88
2023-01-01T10:37:15.356Z,100868.81
2023-01-01T10:39:43.659Z,100857.94
2023-01-01T10:42:14.784Z,100855.50
2023-01-01T10:44:43.292Z,100840.22
2023-01-01T10:47:21.093Z,100853.09
2023-01-01T10:49:59.033Z,100855.13
2023-01-01T10:52:36.629Z,100853.94
2023-01-01T10:55:04.515Z,100856.75
2023-01-01T10:57:34.787Z,100848.28
2023-01-01T11:00:10.523Z,100853.94
2023-01-01T11:02:37.414Z,100845.94
2023-01-01T11:05:20.711Z,100842.31
2023-01-01T11:07:48.590Z,100846.72
2023-01-01T11:10:23.733Z,100842.72
2023-01-01T11:13:06.953Z,100844.75
2023-01-01T11:15:42.701Z,100835.88
2023-01-01T11:18:22.175Z,100856.00
2023-01-01T11:20:57.264Z,100854.03
2023-01-01T11:23:34.782Z,100869.72
2023-01-01T11:26:06.267Z,100858.47
2023-01-01T11:28:36.717Z,100868.97
2023-01-01T11:31:15.521Z,100874.59
2023-01-01T11:33:52.837Z,100885.47
2023-01-01T11:36:25.464Z,100887.91
2023-01-01T11:39:06.654Z,100882.25
2023-01-01T11:41:48.172Z,100885.50
2023-01-01T11:44:27.738Z,100897.59
2023-01-01T11:46:54.207Z,100895.97
2023-01-01T11:49:25.199Z,100908.47
2023-01-01T11:51:51.842Z,100904.06
2023-01-01T11:54:36.039Z,100914.91
2023-01-01T11:57:11.948Z,100918.97
2023-01-01T11:59:59.338Z,100910.50
2023-01-01T12:02:53.059Z,100904.88
2023-01-01T12:05:25.661Z,100923.00
2023-01-01T12:07:52.479Z,100917.34
2023-01-01T12:10:30.094Z,100912.53
2023-01-01T12:13:18.067Z,100912.09
2023-01-01T12:16:02.405Z,100910.50
2023-01-01T12:18:37.153Z,100902.81
2023-01-01T12:21:24.899Z,100898.81
2023-01-01T12:23:51.452Z,100897.19
2023-01-01T12:26:29.529Z,100883.91
2023-01-01T12:29:24.365Z,100878.25
2023-01-01T12:32:14.058Z,100887.53
2023-01-01T12:35:05.302Z,100890.72
2023-01-01T12:37:46.425Z,100894.75
2023-01-01T12:40:48.476Z,100881.06
2023-01-01T12:43:38.847Z,100886.69
2023-01-01T12:46:30.421Z,100889.09
2023-01-01T12:49:22.465Z,100888.31
2023-01-01T12:52:20.647Z,100888.69
2023-01-01T12:55:08.050Z,100874.22
2023-01-01T12:57:48.564Z,100877.44
2023-01-01T13:00:18.239Z,100881.50
2023-01-01T13:02:56.394Z,100891.16
2023-01-01T13:05:27.490Z,100892.78
2023-01-01T13:07:59.258Z,100892.78
2023-01-01T13:10:36.713Z,100895.16
2023-01-01T13:13:04.445Z,100894.38
2023-01-01T13:15:40.447Z,100894.00
2023-01-01T13:18:14.064Z,100894.78
2023-01-01T13:20:53.643Z,100897.59
2023-01-01T13:23:29.337Z,100899.97
2023-01-01T13:26:17.701Z,100905.22
2023-01-01T13:29:09.602Z,100892.75
2023-01-01T13:31:39.223Z,100905.66
2023-01-01T13:34:31.275Z,100901.19
2023-01-01T13:37:10.034Z,100904.81
2023-01-01T13:40:13.942Z,100899.16
2023-01-01T13:43:04.648Z,100901.97
2023-01-01T13:49:12.034Z,100923.25
2023-01-01T13:52:08.461Z,100922.03
2023-01-01T13:55:05.590Z,100924.44
2023-01-01T13:57:56.718Z,100914.34
2023-01-01T14:00:32.338Z,100931.66
2023-01-01T14:03:02.871Z,100924.81
2023-01-01T14:05:34.035Z,100923.59
2023-01-01T14:08:00.549Z,100918.75
2023-01-01T14:10:31.404Z,100928.00
2023-01-01T14:13:07.000Z,100915.50
2023-01-01T14:15:36.321Z,100912.69
2023-01-01T14:18:06.667Z,100921.13
2023-01-01T14:20:48.972Z,100916.69
2023-01-01T14:23:36.852Z,100915.47
2023-01-01T14:26:15.380Z,100913.03
2023-01-01T14:28:43.185Z,100911.84
2023-01-01T14:31:14.111Z,100909.00
2023-01-01T14:33:40.707Z,100912.22
2023-01-01T14:36:17.763Z,100916.19
2023-01-01T14:38:46.573Z,100917.81
2023-01-01T14:41:19.005Z,100923.41
2023-01-01T14:43:47.722Z,100927.44
2023-01-01T14:46:18.450Z,100924.22
2023-01-01T14:48:46.946Z,100929.00
2023-01-01T14:51:20.346Z,100941.09
2023-01-01T14:53:48.678Z,100933.00
2023-01-01T14:56:26.742Z,100937.44
2023-01-01T14:58:53.798Z,100928.56
2023-01-01T15:01:26.476Z,100946.25
2023-01-01T15:04:01.724Z,100947.81
2023-01-01T15:06:29.241Z,100939.38
2023-01-01T15:08:57.728Z,100944.19
2023-01-01T15:11:29.089Z,100941.78
2023-01-01T15:14:01.473Z,100946.97
2023-01-01T15:16:33.306Z,100945.38
2023-01-01T15:19:18.511Z,100939.28
2023-01-01T15:21:45.513Z,100932.44
2023-01-01T15:24:20.319Z,100938.03
2023-01-01T15:26:56.350Z,100941.25
2023-01-01T15:29:38.301Z,100938.41
2023-01-01T15:32:07.436Z,100928.78
2023-01-01T15:34:53.798Z,100934.75
2023-01-01T15:37:32.189Z,100927.50
2023-01-01T15:39:59.749Z,100917.47
2023-01-01T15:42:32.985Z,100928.34
2023-01-01T15:45:23.386Z,100920.25
2023-01-01T15:47:51.896Z,100920.25
2023-01-01T15:50:30.075Z,100913.00
2023-01-01T15:53:01.200Z,100918.63
2023-01-01T15:55:31.494Z,100910.16
2023-01-01T15:57:58.631Z,100914.94
2023-01-01T16:00:35.969Z,100918.13
2023-01-01T16:03:17.549Z,100931.34
2023-01-01T16:05:50.340Z,100936.56
2023-01-01T16:08:17.492Z,100943.78
2023-01-01T16:10:43.827Z,100941.38
2023-01-01T16:13:12.877Z,100951.84
2023-01-01T16:16:00.391Z,100949.72
2023-01-01T16:18:38.042Z,100947.72
2023-01-01T16:21:05.481Z,100950.97
2023-01-01T16:23:31.884Z,100947.72
2023-01-01T16:25:58.415Z,100953.34
2023-01-01T16:28:24.833Z,100953.75
2023-01-01T16:30:51.971Z,100942.09
2023-01-01T16:33:21.558Z,100946.47
2023-01-01T16:35:47.900Z,100948.88
2023-01-01T16:38:14.758Z,100943.19
2023-01-01T16:40:41.305Z,100952.38
2023-01-01T16:43:16.158Z,100943.50
2023-01-01T16:45:44.018Z,100958.38
2023-01-01T16:48:10.487Z,100959.16
2023-01-01T16:50:37.025Z,100949.47
2023-01-01T16:53:03.572Z,100954.69
2023-01-01T16:55:30.117Z,100953.44
2023-01-01T16:58:21.190Z,100958.63
2023-01-01T17:00:43.400Z,100956.56
2023-01-01T17:03:10.005Z,100952.88
2023-01-01T17:05:42.128Z,100960.47
2023-01-01T17:08:10.362Z,100958.03
2023-01-01T17:10:36.725Z,100958.81
2023-01-01T17:13:03.316Z,100945.53
2023-01-01T17:15:29.877Z,100951.91
2023-01-01T17:17:57.739Z,100947.06
2023-01-01T17:20:25.184Z,100953.03
2023-01-01T17:22:51.635Z,100951.81
2023-01-01T17:25:18.144Z,100954.56
2023-01-01T17:27:47.584Z,100943.28
2023-01-01T17:30:16.074Z,100941.59
2023-01-01T17:32:42.464Z,100941.59
2023-01-01T17:35:09.456Z,100937.91
2023-01-01T17:37:35.859Z,100939.06
2023-01-01T17:40:02.283Z,100928.13
2023-01-01T17:42:29.062Z,100934.91
2023-01-01T17:44:55.463Z,100922.38
2023-01-01T17:47:24.538Z,100913.88
2023-01-01T17:49:54.218Z,100919.03
2023-01-01T17:52:20.833Z,100924.59
2023-01-01T17:54:47.184Z,100914.50
2023-01-01T17:57:13.568Z,100908.81
2023-01-01T17:59:39.983Z,100900.78
2023-01-01T18:02:13.410Z,100903.50
2023-01-01T18:04:41.293Z,100909.91
2023-01-01T18:07:07.822Z,100902.25
2023-01-01T18:09:34.318Z,100899.00
2023-01-01T18:12:01.277Z,100905.81
2023-01-01T18:14:28.179Z,100906.19
2023-01-01T18:16:54.541Z,100898.97
2023-01-01T18:19:21.301Z,100897.78
2023-01-01T18:21:47.833Z,100892.53
2023-01-01T18:24:15.410Z,100888.09
2023-01-01T18:26:42.469Z,100890.09
2023-01-01T18:29:09.337Z,100889.28
2023-01-01T18:31:36.524Z,100885.69
2023-01-01T18:34:04.309Z,100872.44
2023-01-01T18:36:32.744Z,100884.88
2023-01-01T18:39:20.030Z,100879.63
2023-01-01T18:41:49.285Z,100883.63
2023-01-01T18:44:28.329Z,100887.19
2023-01-01T18:47:11.651Z,100884.38
2023-01-01T18:49:38.229Z,100880.38
2023-01-01T18:52:07.653Z,100877.53
2023-01-01T18:54:35.536Z,100873.09
2023-01-01T18:57:12.069Z,100866.22
2023-01-01T18:59:39.697Z,100868.69
2023-01-01T19:02:29.508Z,100871.81
2023-01-01T19:05:06.655Z,100873.03
2023-01-01T19:07:33.039Z,100869.03
2023-01-01T19:10:00.138Z,100873.03
2023-01-01T19:12:28.586Z,100861.00
2023-01-01T19:14:55.089Z,100853.78
2023-01-01T19:17:23.473Z,100849.78
2023-01-01T19:19:50.723Z,100847.78
2023-01-01T19:22:33.122Z,100839.28
2023-01-01T19:25:02.553Z,100835.72
2023-01-01T19:27:34.076Z,100832.13
2023-01-01T19:30:01.897Z,100833.72
2023-01-01T19:32:29.314Z,100827.31
2023-01-01T19:34:56.304Z,100832.13
2023-01-01T19:37:22.824Z,100830.06
2023-01-01T19:39:51.562Z,100818.41
2023-01-01T19:42:18.290Z,100821.59
2023-01-01T19:44:44.859Z,100821.16
2023-01-01T19:47:11.173Z,100817.13
2023-01-01T19:49:37.819Z,100816.31
2023-01-01T19:52:04.341Z,100812.66
2023-01-01T19:54:30.759Z,100807.44
2023-01-01T19:56:57.268Z,100805.84
2023-01-01T19:59:27.811Z,100796.16
2023-01-01T20:02:35.005Z,100796.16
2023-01-01T20:04:45.877Z,100783.31
2023-01-01T20:07:15.607Z,100786.13
2023-01-01T20:09:42.016Z,100787.31
2023-01-01T20:12:08.446Z,100780.91
2023-01-01T20:14:34.887Z,100780.91
2023-01-01T20:17:02.413Z,100780.09
2023-01-01T20:19:29.022Z,100766.47
2023-01-01T20:22:13.927Z,100757.25
2023-01-01T20:24:44.829Z,100748.84
2023-01-01T20:27:14.719Z,100750.44
2023-01-01T20:29:41.130Z,100747.28
2023-01-01T20:32:15.553Z,100729.25
2023-01-01T20:34:43.611Z,100724.44
2023-01-01T20:37:28.567Z,100729.66
2023-01-01T20:39:55.114Z,100712.47
2023-01-01T20:42:21.595Z,100719.25
2023-01-01T20:44:48.106Z,100711.28
2023-01-01T20:47:14.830Z,100707.28
2023-01-01T20:49:42.665Z,100696.03
2023-01-01T20:52:09.164Z,100692.03
2023-01-01T20:54:35.596Z,100704.88
2023-01-01T20:57:01.979Z,100705.31
2023-01-01T20:59:37.373Z,100694.50
2023-01-01T21:02:07.140Z,100694.50
2023-01-01T21:04:38.070Z,100676.88
2023-01-01T21:07:06.210Z,100668.44
2023-01-01T21:09:32.765Z,100653.22
2023-01-01T21:12:01.248Z,100635.22
2023-01-01T21:14:28.468Z,100648.47
2023-01-01T21:16:55.031Z,100637.22
2023-01-01T21:19:26.643Z,100638.81
2023-01-01T21:21:55.894Z,100644.44
2023-01-01T21:24:28.049Z,100638.38
2023-01-01T21:27:17.377Z,100640.78
2023-01-01T21:29:46.185Z,100634.75
2023-01-01T21:32:18.886Z,100630.34
2023-01-01T21:34:45.829Z,100628.75
2023-01-01T21:37:42.442Z,100630.34
2023-01-01T21:40:27.301Z,100615.50
2023-01-01T21:43:05.813Z,100618.31
2023-01-01T21:45:33.701Z,100609.94
2023-01-01T21:48:30.636Z,100611.09
2023-01-01T21:50:57.186Z,100612.75
2023-01-01T21:53:34.896Z,100608.28
2023-01-01T21:56:24.253Z,100608.66
2023-01-01T21:59:10.474Z,100601.47
2023-01-01T22:01:43.402Z,100617.50
2023-01-01T22:04:09.809Z,100611.50
2023-01-01T22:06:44.947Z,100602.66
2023-01-01T22:09:20.848Z,100591.47
2023-01-01T22:11:49.080Z,100588.28
2023-01-01T22:14:18.547Z,100594.31
2023-01-01T22:16:47.491Z,100599.16
2023-01-01T22:19:19.744Z,100593.97
2023-01-01T22:21:47.061Z,100592.41
2023-01-01T22:24:33.550Z,100588.44
2023-01-01T22:27:29.477Z,100589.72
2023-01-01T22:30:21.046Z,100588.16
2023-01-01T22:32:52.212Z,100579.84
2023-01-01T22:35:23.680Z,100572.22
2023-01-01T22:37:55.684Z,100578.31
2023-01-01T22:40:29.053Z,100575.53
2023-01-01T22:43:10.345Z,100572.75
2023-01-01T22:45:41.658Z,100565.59
2023-01-01T22:48:16.546Z,100558.00
2023-01-01T22:50:44.837Z,100555.22
2023-01-01T22:53:11.205Z,100561.69
2023-01-01T22:55:37.764Z,100552.84
2023-01-01T22:58:04.164Z,100554.09
2023-01-01T23:00:30.722Z,100552.06
2023-01-01T23:02:57.186Z,100550.09
2023-01-01T23:05:23.686Z,100551.31
2023-01-01T23:07:50.144Z,100549.75
2023-01-01T23:10:16.765Z,100543.72
2023-01-01T23:12:43.140Z,100541.31
2023-01-01T23:15:28.818Z,100546.16
2023-01-01T23:17:55.328Z,100553.41
2023-01-01T23:20:21.865Z,100528.53
2023-01-01T23:22:52.076Z,100537.78
2023-01-01T23:25:19.562Z,100528.59
2023-01-01T23:27:47.429Z,100518.16
2023-01-01T23:30:16.249Z,100511.75
2023-01-01T23:32:42.874Z,100513.78
2023-01-01T23:35:10.341Z,100515.81
2023-01-01T23:37:37.656Z,100514.59
2023-01-01T23:40:04.550Z,100503.38
2023-01-01T23:42:30.927Z,100493.72
2023-01-01T23:44:57.258Z,100487.34
2023-01-01T23:47:23.669Z,100493.38
2023-01-01T23:49:50.112Z,100486.56
2023-01-01T23:52:16.565Z,100484.53
2023-01-01T23:54:42.984Z,100484.13
2023-01-01T23:57:09.530Z,100477.34
2023-01-01T23:59:35.880Z,100489.78
